Time;durP1;ratioP1;P1;durP2;ratioP2;P2;SDS_P1;SDS_P2;PMS_P1;PMS_P2;Temp;Humidity;BMP_temperature;BMP_pressure;BME280_temperature;BME280_humidity;BME280_pressure;Samples;Min_cycle;Max_cycle;Signal;HPM_P1;HPM_P2
2022/05/04 00:00:11;;;;;;;2.08;1.98;;;;;;;;;;5037138;28;20040;-68
2022/05/04 00:02:39;;;;;;;;;;;;;;;;;;5041470;28;20124;-67
2022/05/04 00:05:05;;;;;;;2.78;2.00;;;;;;;;;;5039047;28;20490;-67
2022/05/04 00:07:31;;;;;;;2.00;1.90;;;;;;;;;;5037225;28;20128;-67
2022/05/04 00:09:57;;;;;;;4.57;2.83;;;;;;;;;;5035364;28;20116;-67
2022/05/04 00:12:24;;;;;;;6.60;2.40;;;;;;;;;;5035052;28;20028;-68
2022/05/04 00:14:50;;;;;;;2.72;2.35;;;;;;;;;;5038855;28;20154;-68
2022/05/04 00:17:16;;;;;;;3.15;2.95;;;;;;;;;;5032998;28;20120;-68
2022/05/04 00:19:42;;;;;;;2.38;2.17;;;;;;;;;;5032059;28;20041;-67
2022/05/04 00:22:08;;;;;;;6.30;2.60;;;;;;;;;;5038200;28;20041;-67
2022/05/04 00:24:33;;;;;;;3.47;2.38;;;;;;;;;;5036307;28;20112;-68
2022/05/04 00:26:59;;;;;;;5.97;2.53;;;;;;;;;;5036841;28;20029;-67
2022/05/04 00:29:25;;;;;;;6.25;2.40;;;;;;;;;;5036958;28;20121;-67
2022/05/04 00:31:50;;;;;;;2.40;2.20;;;;;;;;;;5040174;28;20028;-68
2022/05/04 00:34:16;;;;;;;2.97;2.30;;;;;;;;;;5040408;28;20048;-67
2022/05/04 00:36:42;;;;;;;2.80;2.00;;;;;;;;;;5034666;28;20056;-68
2022/05/04 00:39:08;;;;;;;5.85;2.42;;;;;;;;;;5035186;28;20065;-67
2022/05/04 00:41:33;;;;;;;2.40;2.30;;;;;;;;;;5031128;28;21017;-67
2022/05/04 00:43:59;;;;;;;2.75;2.00;;;;;;;;;;5032854;28;20781;-67
2022/05/04 00:46:25;;;;;;;2.60;2.40;;;;;;;;;;5035363;28;20029;-67
2022/05/04 00:48:50;;;;;;;2.22;2.13;;;;;;;;;;5033233;28;20025;-67
2022/05/04 00:51:16;;;;;;;2.38;2.17;;;;;;;;;;5035497;28;20436;-67
2022/05/04 00:53:44;;;;;;;2.40;2.30;;;;;;;;;;5036076;28;20064;-68
2022/05/04 00:56:11;;;;;;;2.40;2.20;;;;;;;;;;5035929;28;20092;-67
2022/05/04 00:58:57;;;;;;;2.63;2.42;;;;;;;;;;5039752;28;20025;-67
2022/05/04 01:01:27;;;;;;;2.50;2.30;;;;;;;;;;5033644;28;20128;-67
2022/05/04 01:03:54;;;;;;;2.40;2.20;;;;;;;;;;5038322;28;20433;-67
2022/05/04 01:06:20;;;;;;;3.65;2.92;;;;;;;;;;5036278;28;20036;-66
2022/05/04 01:08:48;;;;;;;2.63;2.45;;;;;;;;;;5035435;28;20432;-67
2022/05/04 01:11:14;;;;;;;4.70;2.50;;;;;;;;;;5031858;28;20029;-67
2022/05/04 01:13:40;;;;;;;5.15;2.20;;;;;;;;;;5036006;28;20056;-66
2022/05/04 01:16:06;;;;;;;2.47;2.28;;;;;;;;;;5033459;28;20056;-67
2022/05/04 01:18:32;;;;;;;2.25;2.08;;;;;;;;;;5032948;28;20025;-68
2022/05/04 01:20:58;;;;;;;2.42;2.22;;;;;;;;;;5035821;28;20090;-67
2022/05/04 01:23:25;;;;;;;4.20;2.45;;;;;;;;;;5034155;28;20034;-67
2022/05/04 01:25:53;;;;;;;2.47;2.28;;;;;;;;;;5040212;28;20021;-67
2022/05/04 01:28:19;;;;;;;2.40;2.20;;;;;;;;;;5038744;28;20108;-67
2022/05/04 01:30:45;;;;;;;2.85;2.47;;;;;;;;;;5033680;28;20029;-67
2022/05/04 01:33:11;;;;;;;2.40;2.30;;;;;;;;;;5030819;28;20029;-67
2022/05/04 01:35:37;;;;;;;3.67;2.30;;;;;;;;;;5033178;28;20083;-68
2022/05/04 01:38:02;;;;;;;4.05;2.72;;;;;;;;;;5031806;28;20037;-68
2022/05/04 01:40:28;;;;;;;2.95;2.72;;;;;;;;;;5035997;28;20021;-67
2022/05/04 01:42:54;;;;;;;3.42;2.92;;;;;;;;;;5041554;28;20040;-68
2022/05/04 01:45:20;;;;;;;2.78;2.60;;;;;;;;;;5031430;28;20037;-68
2022/05/04 01:47:50;;;;;;;2.70;2.50;;;;;;;;;;5031995;28;24896;-67
2022/05/04 01:50:17;;;;;;;8.10;2.78;;;;;;;;;;5034177;28;20037;-67
2022/05/04 01:52:42;;;;;;;4.47;2.75;;;;;;;;;;5037387;28;20071;-67
2022/05/04 01:55:09;;;;;;;5.55;3.05;;;;;;;;;;5032803;28;20049;-67
2022/05/04 01:57:35;;;;;;;2.50;2.30;;;;;;;;;;5037723;28;20026;-68
2022/05/04 02:00:00;;;;;;;2.97;2.72;;;;;;;;;;5037142;28;20040;-68
2022/05/04 02:02:27;;;;;;;2.63;2.42;;;;;;;;;;5035100;28;20026;-68
2022/05/04 02:04:54;;;;;;;8.88;3.05;;;;;;;;;;5049078;28;20040;-67
2022/05/04 02:07:20;;;;;;;3.33;2.58;;;;;;;;;;5036840;28;20735;-68
2022/05/04 02:09:46;;;;;;;2.80;2.60;;;;;;;;;;5039006;28;20025;-67
2022/05/04 02:12:12;;;;;;;2.83;2.63;;;;;;;;;;5036051;28;20138;-68
2022/05/04 02:14:38;;;;;;;2.63;2.35;;;;;;;;;;5046494;28;20017;-68
2022/05/04 02:17:04;;;;;;;2.78;2.20;;;;;;;;;;5041904;28;20030;-67
2022/05/04 02:19:30;;;;;;;2.38;2.25;;;;;;;;;;5041640;28;20044;-67
2022/05/04 02:21:56;;;;;;;2.45;2.33;;;;;;;;;;5039138;28;20021;-68
2022/05/04 02:24:22;;;;;;;2.28;2.08;;;;;;;;;;5037381;28;20028;-66
2022/05/04 02:26:48;;;;;;;4.05;2.42;;;;;;;;;;5067079;28;20021;-67
2022/05/04 02:29:13;;;;;;;2.30;2.10;;;;;;;;;;5040218;28;20026;-67
2022/05/04 02:31:39;;;;;;;3.90;2.53;;;;;;;;;;5035002;28;20034;-68
2022/05/04 02:34:05;;;;;;;2.60;1.98;;;;;;;;;;5039874;28;20025;-68
2022/05/04 02:39:15;;;;;;;6.35;2.20;;;;;;;;;;5036209;28;20037;-68
2022/05/04 02:41:40;;;;;;;2.10;2.00;;;;;;;;;;5037826;28;20064;-66
2022/05/04 02:44:07;;;;;;;4.47;2.13;;;;;;;;;;5034688;28;20414;-67
2022/05/04 02:46:32;;;;;;;3.55;1.85;;;;;;;;;;5033760;28;20032;-67
2022/05/04 02:48:59;;;;;;;2.97;2.03;;;;;;;;;;5040631;28;20036;-68
2022/05/04 02:51:25;;;;;;;1.92;1.83;;;;;;;;;;5035328;28;20032;-68
2022/05/04 02:53:51;;;;;;;2.00;1.90;;;;;;;;;;5036849;28;20033;-68
2022/05/04 02:56:17;;;;;;;3.22;2.00;;;;;;;;;;5033834;28;20044;-67
2022/05/04 02:58:43;;;;;;;4.53;2.50;;;;;;;;;;5033892;28;20025;-67
2022/05/04 03:04:08;;;;;;;1.88;1.77;;;;;;;;;;5036900;28;20029;-67
2022/05/04 03:06:41;;;;;;;2.10;2.00;;;;;;;;;;5036979;28;20029;-68
2022/05/04 03:09:09;;;;;;;2.50;2.30;;;;;;;;;;5040054;28;20036;-68
2022/05/04 03:11:54;;;;;;;2.38;2.05;;;;;;;;;;5039400;28;20037;-68
2022/05/04 03:14:20;;;;;;;2.10;2.00;;;;;;;;;;5037408;28;20112;-67
2022/05/04 03:16:47;;;;;;;2.78;2.00;;;;;;;;;;5033268;28;20036;-67
2022/05/04 03:19:13;;;;;;;2.10;1.88;;;;;;;;;;5040578;28;20028;-67
2022/05/04 03:21:39;;;;;;;1.90;1.80;;;;;;;;;;5042091;28;20047;-67
2022/05/04 03:24:05;;;;;;;3.38;2.00;;;;;;;;;;5050077;28;20037;-67
2022/05/04 03:26:31;;;;;;;2.75;1.55;;;;;;;;;;5035790;28;20076;-67
2022/05/04 03:28:57;;;;;;;2.22;2.03;;;;;;;;;;5041867;28;20462;-67
2022/05/04 03:31:23;;;;;;;2.30;2.10;;;;;;;;;;5038986;28;20041;-67
2022/05/04 03:33:49;;;;;;;2.40;1.85;;;;;;;;;;5039057;28;20490;-67
2022/05/04 03:36:15;;;;;;;2.10;2.00;;;;;;;;;;5037985;28;20025;-68
2022/05/04 03:38:41;;;;;;;1.90;1.80;;;;;;;;;;5033332;28;20037;-67
2022/05/04 03:41:06;;;;;;;3.70;1.80;;;;;;;;;;5033633;28;20052;-67
2022/05/04 03:43:32;;;;;;;2.10;2.00;;;;;;;;;;5035856;28;20390;-67
2022/05/04 03:46:19;;;;;;;3.33;1.98;;;;;;;;;;5036263;28;20025;-68
2022/05/04 03:48:48;;;;;;;2.40;2.20;;;;;;;;;;5034694;28;20540;-67
2022/05/04 03:51:16;;;;;;;2.35;2.20;;;;;;;;;;5034621;28;20029;-68
2022/05/04 03:53:42;;;;;;;2.28;2.17;;;;;;;;;;5037089;28;20033;-67
2022/05/04 03:56:08;;;;;;;2.50;2.30;;;;;;;;;;5037483;28;20048;-68
2022/05/04 03:58:34;;;;;;;2.45;2.25;;;;;;;;;;5036142;28;20414;-67
2022/05/04 04:01:00;;;;;;;2.50;2.30;;;;;;;;;;5032766;28;20037;-68
2022/05/04 04:03:26;;;;;;;2.92;2.40;;;;;;;;;;5038286;28;20048;-67
2022/05/04 04:05:52;;;;;;;2.75;2.00;;;;;;;;;;5034309;28;20474;-67
2022/05/04 04:08:18;;;;;;;3.20;2.80;;;;;;;;;;5034695;28;20025;-67
2022/05/04 04:10:43;;;;;;;2.28;2.03;;;;;;;;;;5041664;28;20044;-67
2022/05/04 04:13:09;;;;;;;4.60;2.40;;;;;;;;;;5033984;28;20037;-68
2022/05/04 04:15:35;;;;;;;4.22;2.13;;;;;;;;;;5035703;28;20029;-68
2022/05/04 04:18:01;;;;;;;2.35;2.10;;;;;;;;;;5032981;28;20029;-67
2022/05/04 04:23:11;;;;;;;2.20;2.10;;;;;;;;;;5032606;28;20037;-67
2022/05/04 04:25:37;;;;;;;2.08;1.98;;;;;;;;;;5037370;28;20038;-67
2022/05/04 04:28:03;;;;;;;3.70;2.35;;;;;;;;;;5038933;28;20048;-68
2022/05/04 04:30:29;;;;;;;2.33;1.75;;;;;;;;;;5035237;28;20366;-67
2022/05/04 04:32:55;;;;;;;2.20;2.10;;;;;;;;;;5032195;28;20041;-68
2022/05/04 04:35:20;;;;;;;3.47;1.98;;;;;;;;;;5037075;28;20074;-68
2022/05/04 04:37:46;;;;;;;2.13;2.03;;;;;;;;;;5041122;28;20395;-68
2022/05/04 04:40:12;;;;;;;2.00;1.90;;;;;;;;;;5039351;28;20021;-67
2022/05/04 04:42:38;;;;;;;3.17;1.83;;;;;;;;;;5034823;28;20025;-68
2022/05/04 04:45:05;;;;;;;4.57;1.90;;;;;;;;;;5031908;28;20033;-68
2022/05/04 04:47:31;;;;;;;2.20;2.00;;;;;;;;;;5035176;28;20029;-67
2022/05/04 04:49:57;;;;;;;2.30;2.17;;;;;;;;;;5038395;28;20124;-67
2022/05/04 04:52:23;;;;;;;2.15;1.95;;;;;;;;;;5033619;28;20037;-67
2022/05/04 04:54:50;;;;;;;2.03;1.83;;;;;;;;;;5035199;28;20052;-67
2022/05/04 04:57:16;;;;;;;7.63;2.13;;;;;;;;;;5034721;28;20029;-68
2022/05/04 04:59:42;;;;;;;4.40;2.03;;;;;;;;;;5032987;28;20163;-67
2022/05/04 05:02:08;;;;;;;1.80;1.70;;;;;;;;;;5036380;28;20034;-67
2022/05/04 05:04:34;;;;;;;3.42;1.90;;;;;;;;;;5034209;28;20026;-67
2022/05/04 05:06:59;;;;;;;2.05;1.95;;;;;;;;;;5035072;28;20033;-67
2022/05/04 05:09:25;;;;;;;1.83;1.73;;;;;;;;;;5037414;28;20017;-68
2022/05/04 05:11:51;;;;;;;1.95;1.85;;;;;;;;;;5036328;28;20025;-67
2022/05/04 05:17:02;;;;;;;2.00;1.80;;;;;;;;;;5038644;28;20033;-66
2022/05/04 05:19:28;;;;;;;5.10;2.20;;;;;;;;;;5037427;28;20044;-67
2022/05/04 05:21:54;;;;;;;5.18;1.90;;;;;;;;;;5040140;28;20032;-67
2022/05/04 05:24:19;;;;;;;2.53;2.05;;;;;;;;;;5040754;28;20025;-67
2022/05/04 05:26:45;;;;;;;1.90;1.80;;;;;;;;;;5034106;28;20111;-68
2022/05/04 05:29:11;;;;;;;2.72;1.70;;;;;;;;;;5036785;28;20029;-68
2022/05/04 05:31:37;;;;;;;1.80;1.70;;;;;;;;;;5041842;28;20032;-68
2022/05/04 05:34:02;;;;;;;1.90;1.80;;;;;;;;;;5034519;28;20022;-67
2022/05/04 05:36:28;;;;;;;2.42;1.92;;;;;;;;;;5038658;28;20024;-67
2022/05/04 05:38:54;;;;;;;2.92;1.80;;;;;;;;;;5034819;28;20037;-68
2022/05/04 05:41:22;;;;;;;2.13;1.75;;;;;;;;;;5036960;28;20138;-68
2022/05/04 05:43:47;;;;;;;1.83;1.73;;;;;;;;;;5039543;28;20021;-67
2022/05/04 05:46:13;;;;;;;4.05;2.00;;;;;;;;;;5040248;28;20044;-68
2022/05/04 05:48:39;;;;;;;2.40;1.75;;;;;;;;;;5038270;28;20044;-68
2022/05/04 05:51:05;;;;;;;1.60;1.50;;;;;;;;;;5037342;28;20482;-67
2022/05/04 05:53:31;;;;;;;1.95;1.77;;;;;;;;;;5037693;28;20108;-68
2022/05/04 05:55:57;;;;;;;3.28;1.65;;;;;;;;;;5040605;28;20139;-68
2022/05/04 05:58:24;;;;;;;1.63;1.52;;;;;;;;;;5037707;28;20041;-68
2022/05/04 06:00:51;;;;;;;1.60;1.50;;;;;;;;;;5041148;28;20058;-68
2022/05/04 06:03:17;;;;;;;2.45;1.70;;;;;;;;;;5037191;28;20040;-68
2022/05/04 06:05:43;;;;;;;5.57;1.90;;;;;;;;;;5035446;28;20428;-68
2022/05/04 06:08:09;;;;;;;2.85;1.90;;;;;;;;;;5049256;28;20060;-68
2022/05/04 06:10:36;;;;;;;1.90;1.77;;;;;;;;;;5045241;28;20033;-68
2022/05/04 06:13:02;;;;;;;3.08;1.60;;;;;;;;;;5043680;28;20036;-68
2022/05/04 06:15:27;;;;;;;1.60;1.50;;;;;;;;;;5038658;28;20025;-68
2022/05/04 06:17:53;;;;;;;5.03;1.70;;;;;;;;;;5040238;28;20774;-68
2022/05/04 06:20:19;;;;;;;1.88;1.77;;;;;;;;;;5039063;28;20022;-68
2022/05/04 06:22:45;;;;;;;7.03;1.73;;;;;;;;;;5041626;28;20039;-68
2022/05/04 06:25:11;;;;;;;4.10;1.90;;;;;;;;;;5046271;28;20025;-68
2022/05/04 06:27:36;;;;;;;4.55;1.65;;;;;;;;;;5037223;28;20025;-68
2022/05/04 06:35:31;;;;;;;1.95;1.77;;;;;;;;;;5037049;28;20029;-67
2022/05/04 06:37:57;;;;;;;1.70;1.60;;;;;;;;;;5033981;28;20363;-68
2022/05/04 06:40:22;;;;;;;1.52;1.42;;;;;;;;;;5040557;28;20826;-67
2022/05/04 06:42:48;;;;;;;1.70;1.60;;;;;;;;;;5036888;28;20678;-68
2022/05/04 06:45:14;;;;;;;2.65;1.77;;;;;;;;;;5035100;28;20527;-68
2022/05/04 06:47:39;;;;;;;2.75;1.60;;;;;;;;;;5035902;28;20042;-68
2022/05/04 06:50:06;;;;;;;1.60;1.50;;;;;;;;;;5037993;28;20757;-68
2022/05/04 06:52:32;;;;;;;2.17;1.60;;;;;;;;;;5038937;28;20028;-68
2022/05/04 06:54:59;;;;;;;1.85;1.75;;;;;;;;;;5037387;28;20501;-68
2022/05/04 06:57:24;;;;;;;7.57;2.03;;;;;;;;;;5038912;28;20033;-68
2022/05/04 06:59:50;;;;;;;2.88;1.60;;;;;;;;;;5039457;28;20033;-68
2022/05/04 07:02:16;;;;;;;9.18;4.55;;;;;;;;;;5036406;28;20425;-68
2022/05/04 07:04:42;;;;;;;4.57;3.20;;;;;;;;;;5038260;28;20028;-67
2022/05/04 07:07:08;;;;;;;5.22;2.83;;;;;;;;;;5040088;28;20072;-68
2022/05/04 07:09:33;;;;;;;3.53;1.63;;;;;;;;;;5043664;28;20036;-69
2022/05/04 07:11:59;;;;;;;1.98;1.88;;;;;;;;;;5036936;28;20028;-68
2022/05/04 07:14:25;;;;;;;4.53;3.40;;;;;;;;;;5035115;28;20026;-67
2022/05/04 07:16:51;;;;;;;9.20;5.13;;;;;;;;;;5035537;28;20033;-68
2022/05/04 07:19:17;;;;;;;12.77;4.68;;;;;;;;;;5038340;28;20040;-68
2022/05/04 07:21:45;;;;;;;2.75;2.20;;;;;;;;;;5039265;28;20017;-69
2022/05/04 07:24:11;;;;;;;5.10;4.63;;;;;;;;;;5045293;28;20111;-68
2022/05/04 07:26:38;;;;;;;5.07;1.75;;;;;;;;;;5037371;28;20101;-68
2022/05/04 07:29:04;;;;;;;1.33;1.30;;;;;;;;;;5041811;28;20087;-67
2022/05/04 07:31:30;;;;;;;1.70;1.60;;;;;;;;;;5037291;28;20025;-68
2022/05/04 07:33:56;;;;;;;1.45;1.35;;;;;;;;;;5038978;28;20041;-68
2022/05/04 07:36:22;;;;;;;1.52;1.40;;;;;;;;;;5036539;28;20029;-67
2022/05/04 07:38:47;;;;;;;3.13;1.60;;;;;;;;;;5034739;28;20623;-68
2022/05/04 07:43:59;;;;;;;2.97;1.67;;;;;;;;;;5038365;28;20488;-67
2022/05/04 07:46:27;;;;;;;3.00;1.50;;;;;;;;;;5038659;28;20022;-68
2022/05/04 07:48:54;;;;;;;2.55;1.42;;;;;;;;;;5036532;28;20025;-68
2022/05/04 07:51:20;;;;;;;1.65;1.50;;;;;;;;;;5042778;28;20511;-68
2022/05/04 07:53:45;;;;;;;1.80;1.50;;;;;;;;;;5032611;28;20025;-68
2022/05/04 07:56:11;;;;;;;1.73;1.63;;;;;;;;;;5033308;28;20041;-68
2022/05/04 07:58:37;;;;;;;4.43;1.40;;;;;;;;;;5039076;28;20053;-68
2022/05/04 08:06:32;;;;;;;5.38;1.80;;;;;;;;;;5039017;28;20094;-67
2022/05/04 08:08:57;;;;;;;4.43;1.52;;;;;;;;;;5035954;28;20477;-67
2022/05/04 08:11:23;;;;;;;1.40;1.27;;;;;;;;;;5041250;28;20043;-67
2022/05/04 08:13:49;;;;;;;3.42;1.52;;;;;;;;;;5038905;28;20104;-67
2022/05/04 08:16:15;;;;;;;3.42;2.15;;;;;;;;;;5035252;28;20087;-68
2022/05/04 08:18:40;;;;;;;15.40;2.50;;;;;;;;;;5035056;28;20044;-67
2022/05/04 08:21:08;;;;;;;4.32;1.90;;;;;;;;;;5034528;28;20025;-67
2022/05/04 08:23:34;;;;;;;4.75;2.30;;;;;;;;;;5037585;28;20146;-68
2022/05/04 08:26:01;;;;;;;4.93;2.00;;;;;;;;;;5042022;28;20113;-67
2022/05/04 08:28:27;;;;;;;3.08;1.80;;;;;;;;;;5038327;28;20120;-68
2022/05/04 08:30:53;;;;;;;2.60;2.40;;;;;;;;;;5035209;28;20103;-67
2022/05/04 08:33:19;;;;;;;3.05;2.20;;;;;;;;;;5032785;28;20486;-67
2022/05/04 08:35:45;;;;;;;3.40;2.00;;;;;;;;;;5034262;28;20108;-67
2022/05/04 08:38:12;;;;;;;8.15;2.40;;;;;;;;;;5032752;28;20057;-67
2022/05/04 08:40:41;;;;;;;8.60;2.95;;;;;;;;;;5040373;28;20033;-66
2022/05/04 08:43:08;;;;;;;2.90;2.70;;;;;;;;;;5035125;28;20025;-67
2022/05/04 08:45:38;;;;;;;5.30;2.58;;;;;;;;;;5034030;28;20109;-67
2022/05/04 08:48:05;;;;;;;3.75;2.60;;;;;;;;;;5032350;28;20083;-67
2022/05/04 08:50:33;;;;;;;8.93;3.30;;;;;;;;;;5037431;28;20155;-66
2022/05/04 08:53:01;;;;;;;6.47;2.97;;;;;;;;;;5037029;28;20037;-66
2022/05/04 08:55:27;;;;;;;5.38;3.08;;;;;;;;;;5040174;28;20128;-67
2022/05/04 08:57:54;;;;;;;10.23;3.30;;;;;;;;;;5035942;28;20032;-66
2022/05/04 09:00:20;;;;;;;11.73;2.90;;;;;;;;;;5046545;28;20111;-64
2022/05/04 09:02:47;;;;;;;4.22;2.40;;;;;;;;;;5038305;28;20060;-65
2022/05/04 09:05:20;;;;;;;7.45;3.05;;;;;;;;;;5035106;28;20501;-64
2022/05/04 09:07:49;;;;;;;6.13;2.40;;;;;;;;;;5041207;28;20087;-65
2022/05/04 09:10:17;;;;;;;8.45;2.80;;;;;;;;;;5040937;28;20302;-65
2022/05/04 09:12:44;;;;;;;5.10;2.10;;;;;;;;;;5042148;28;20497;-65
2022/05/04 09:15:24;;;;;;;4.88;2.55;;;;;;;;;;5047281;28;20401;-64
2022/05/04 09:17:57;;;;;;;8.38;2.63;;;;;;;;;;5035763;28;20025;-63
2022/05/04 09:20:47;;;;;;;3.47;1.83;;;;;;;;;;5034297;28;20033;-64
2022/05/04 09:23:30;;;;;;;4.35;2.05;;;;;;;;;;5035739;28;20036;-63
2022/05/04 09:25:58;;;;;;;2.53;2.05;;;;;;;;;;5040946;28;20709;-63
2022/05/04 09:28:26;;;;;;;4.47;2.10;;;;;;;;;;5044103;28;20059;-64
2022/05/04 09:30:57;;;;;;;2.22;2.08;;;;;;;;;;5037627;28;20103;-64
2022/05/04 09:33:28;;;;;;;3.57;2.23;;;;;;;;;;5038535;28;20737;-64
2022/05/04 09:35:57;;;;;;;5.70;2.30;;;;;;;;;;5040712;28;20047;-63
2022/05/04 09:46:46;;;;;;;5.55;3.30;;;;;;;;;;5039881;28;20474;-63
2022/05/04 09:49:17;;;;;;;11.93;1.80;;;;;;;;;;5040350;28;20040;-64
2022/05/04 09:51:51;;;;;;;5.03;2.15;;;;;;;;;;5038166;28;20064;-62
2022/05/04 09:54:18;;;;;;;2.72;1.60;;;;;;;;;;5038835;28;20409;-63
2022/05/04 09:56:49;;;;;;;3.20;2.10;;;;;;;;;;5040227;28;20078;-63
2022/05/04 09:59:17;;;;;;;1.97;1.87;;;;;;;;;;5037389;28;20447;-63
2022/05/04 10:01:44;;;;;;;2.15;1.83;;;;;;;;;;5038852;28;20309;-64
2022/05/04 10:04:10;;;;;;;5.70;2.40;;;;;;;;;;5042332;28;20029;-64
2022/05/04 10:06:37;;;;;;;3.70;1.75;;;;;;;;;;5041546;28;20116;-64
2022/05/04 10:09:06;;;;;;;3.03;2.17;;;;;;;;;;5036367;28;20133;-63
2022/05/04 10:11:36;;;;;;;2.85;2.15;;;;;;;;;;5036094;28;20501;-63
2022/05/04 10:14:09;;;;;;;2.10;2.00;;;;;;;;;;5037752;28;20394;-63
2022/05/04 10:16:59;;;;;;;3.28;2.10;;;;;;;;;;5035219;28;20029;-66
2022/05/04 10:19:42;;;;;;;2.08;1.88;;;;;;;;;;5040902;28;20464;-62
2022/05/04 10:22:14;;;;;;;4.95;2.05;;;;;;;;;;5048314;28;20390;-63
2022/05/04 10:24:42;;;;;;;7.40;2.17;;;;;;;;;;5037524;28;20036;-63
2022/05/04 10:27:17;;;;;;;2.58;2.10;;;;;;;;;;5069276;28;20021;-62
2022/05/04 10:32:33;;;;;;;2.50;2.30;;;;;;;;;;5040989;28;20025;-65
2022/05/04 10:35:34;;;;;;;2.47;2.20;;;;;;;;;;5041058;28;20102;-63
2022/05/04 10:37:59;;;;;;;5.68;2.30;;;;;;;;;;4965712;28;20181;-63
2022/05/04 10:40:38;;;;;;;3.78;2.00;;;;;;;;;;4967315;28;20105;-62
2022/05/04 10:43:09;;;;;;;3.78;2.05;;;;;;;;;;4967024;28;20050;-62
2022/05/04 10:45:37;;;;;;;5.63;2.25;;;;;;;;;;4965139;28;20089;-62
2022/05/04 10:48:22;;;;;;;2.40;2.15;;;;;;;;;;4959457;28;20044;-63
2022/05/04 10:51:18;;;;;;;2.63;2.08;;;;;;;;;;4964408;28;20038;-62
2022/05/04 10:53:46;;;;;;;5.40;2.30;;;;;;;;;;4960368;28;20034;-62
2022/05/04 10:56:23;;;;;;;7.85;2.38;;;;;;;;;;4967674;28;20472;-62
2022/05/04 10:58:53;;;;;;;6.38;2.22;;;;;;;;;;4960747;28;20058;-62
2022/05/04 11:01:27;;;;;;;5.40;2.33;;;;;;;;;;4965922;28;20061;-62
2022/05/04 11:04:23;;;;;;;3.53;2.28;;;;;;;;;;4967670;28;20140;-62
2022/05/04 11:06:50;;;;;;;6.15;2.63;;;;;;;;;;4962458;28;20037;-63
2022/05/04 11:09:18;;;;;;;6.72;2.70;;;;;;;;;;4965433;28;20532;-62
2022/05/04 11:11:46;;;;;;;2.88;2.00;;;;;;;;;;4966317;28;20042;-63
2022/05/04 11:14:15;;;;;;;6.15;2.22;;;;;;;;;;4984119;28;20493;-62
2022/05/04 11:16:43;;;;;;;3.67;2.25;;;;;;;;;;5038177;28;20087;-61
2022/05/04 11:19:11;;;;;;;4.05;2.22;;;;;;;;;;5068322;28;20038;-61
2022/05/04 11:21:37;;;;;;;2.83;2.40;;;;;;;;;;5038430;28;20052;-61
2022/05/04 11:24:06;;;;;;;8.13;2.53;;;;;;;;;;5037607;28;20024;-61
2022/05/04 11:26:40;;;;;;;4.75;2.60;;;;;;;;;;5033435;28;20029;-62
2022/05/04 11:29:20;;;;;;;2.92;2.42;;;;;;;;;;5034458;28;20029;-61
2022/05/04 11:31:54;;;;;;;5.60;2.42;;;;;;;;;;5034941;28;20044;-61
2022/05/04 11:34:40;;;;;;;5.35;2.50;;;;;;;;;;5036097;28;20036;-61
2022/05/04 11:37:11;;;;;;;3.90;2.10;;;;;;;;;;5042441;28;20041;-61
2022/05/04 11:39:39;;;;;;;4.00;2.30;;;;;;;;;;5037079;28;20121;-61
2022/05/04 11:42:10;;;;;;;4.18;2.60;;;;;;;;;;5035013;28;20037;-61
2022/05/04 11:44:38;;;;;;;7.15;2.75;;;;;;;;;;5038913;28;20081;-62
2022/05/04 11:47:05;;;;;;;4.07;2.20;;;;;;;;;;5037973;28;20048;-61
2022/05/04 11:49:34;;;;;;;3.33;2.22;;;;;;;;;;5039887;28;20049;-61
2022/05/04 11:52:01;;;;;;;7.43;2.42;;;;;;;;;;5038817;28;20026;-62
2022/05/04 11:54:27;;;;;;;4.65;2.55;;;;;;;;;;5037214;28;20037;-62
2022/05/04 11:56:53;;;;;;;4.57;2.30;;;;;;;;;;5034966;28;20044;-62
2022/05/04 11:59:19;;;;;;;3.45;2.20;;;;;;;;;;5038516;28;20083;-61
2022/05/04 12:01:46;;;;;;;3.65;1.92;;;;;;;;;;5038365;28;20064;-62
2022/05/04 12:04:13;;;;;;;3.65;2.47;;;;;;;;;;5037310;28;20037;-64
2022/05/04 12:06:41;;;;;;;3.55;2.20;;;;;;;;;;5036095;28;20036;-64
2022/05/04 12:09:07;;;;;;;8.20;2.33;;;;;;;;;;5035791;28;20501;-64
2022/05/04 12:11:33;;;;;;;5.47;2.53;;;;;;;;;;5036330;28;20037;-62
2022/05/04 12:13:59;;;;;;;2.67;2.40;;;;;;;;;;5038505;28;20043;-62
2022/05/04 12:16:26;;;;;;;6.68;2.20;;;;;;;;;;5033563;28;20115;-62
2022/05/04 12:18:52;;;;;;;5.55;2.50;;;;;;;;;;5035717;28;20052;-62
2022/05/04 12:21:22;;;;;;;7.80;2.30;;;;;;;;;;5035396;28;20036;-62
2022/05/04 12:23:52;;;;;;;6.50;2.83;;;;;;;;;;5043993;28;20037;-62
2022/05/04 12:26:18;;;;;;;5.78;2.70;;;;;;;;;;5037014;28;20104;-61
2022/05/04 12:34:16;;;;;;;2.90;2.65;;;;;;;;;;5040027;28;20036;-62
2022/05/04 12:36:46;;;;;;;2.67;2.35;;;;;;;;;;5033066;28;20109;-61
2022/05/04 12:39:12;;;;;;;4.82;3.33;;;;;;;;;;5032026;28;20033;-62
2022/05/04 12:41:38;;;;;;;3.60;2.50;;;;;;;;;;5033027;28;20433;-62
2022/05/04 12:44:06;;;;;;;10.48;3.65;;;;;;;;;;5041501;28;20075;-62
2022/05/04 12:46:32;;;;;;;7.07;2.90;;;;;;;;;;5037562;28;20079;-64
2022/05/04 12:48:58;;;;;;;4.50;2.80;;;;;;;;;;5036900;28;20029;-61
2022/05/04 12:51:25;;;;;;;3.85;2.70;;;;;;;;;;5034630;28;20508;-62
2022/05/04 12:53:51;;;;;;;4.80;2.65;;;;;;;;;;5035250;28;20037;-62
2022/05/04 12:59:03;;;;;;;5.78;2.30;;;;;;;;;;5040264;28;20033;-59
2022/05/04 13:01:31;;;;;;;9.07;3.13;;;;;;;;;;5041446;28;20029;-62
2022/05/04 13:03:58;;;;;;;4.68;2.50;;;;;;;;;;5039129;28;20032;-62
2022/05/04 13:06:25;;;;;;;5.22;2.92;;;;;;;;;;5034497;28;20036;-62
2022/05/04 13:08:51;;;;;;;10.15;2.85;;;;;;;;;;5040159;28;20107;-61
2022/05/04 13:11:20;;;;;;;7.05;2.28;;;;;;;;;;5044544;28;20033;-62
2022/05/04 13:13:46;;;;;;;4.75;2.38;;;;;;;;;;5036638;28;20037;-62
2022/05/04 13:16:12;;;;;;;3.90;2.72;;;;;;;;;;5033530;28;20025;-62
2022/05/04 13:18:39;;;;;;;3.17;2.60;;;;;;;;;;5032870;28;20390;-62
2022/05/04 13:21:05;;;;;;;7.10;2.88;;;;;;;;;;5032260;28;20471;-61
2022/05/04 13:23:31;;;;;;;3.40;2.33;;;;;;;;;;5044393;28;20040;-62
2022/05/04 13:25:57;;;;;;;5.05;2.63;;;;;;;;;;5036520;28;20024;-61
2022/05/04 13:28:23;;;;;;;5.22;2.72;;;;;;;;;;5035648;28;20394;-61
2022/05/04 13:30:50;;;;;;;4.80;2.58;;;;;;;;;;5036430;28;20041;-62
2022/05/04 13:33:16;;;;;;;3.25;2.45;;;;;;;;;;5032014;28;20044;-61
2022/05/04 13:35:42;;;;;;;4.70;3.13;;;;;;;;;;5032880;28;20033;-61
2022/05/04 13:38:08;;;;;;;9.27;3.08;;;;;;;;;;5041049;28;20033;-62
2022/05/04 13:40:34;;;;;;;6.72;2.90;;;;;;;;;;5035175;28;20033;-62
2022/05/04 13:43:00;;;;;;;8.75;2.70;;;;;;;;;;5037662;28;20033;-62
2022/05/04 13:45:26;;;;;;;5.70;2.97;;;;;;;;;;5035467;28;20108;-62
2022/05/04 13:47:52;;;;;;;6.38;2.97;;;;;;;;;;5034744;28;20120;-62
2022/05/04 13:53:14;;;;;;;7.18;2.80;;;;;;;;;;5036301;28;20026;-62
2022/05/04 13:55:52;;;;;;;4.20;2.72;;;;;;;;;;5070452;28;20080;-62
2022/05/04 13:58:23;;;;;;;6.32;2.90;;;;;;;;;;5044673;28;20078;-62
2022/05/04 14:00:50;;;;;;;9.30;3.25;;;;;;;;;;5040023;28;20070;-62
2022/05/04 14:03:16;;;;;;;3.92;2.97;;;;;;;;;;5037338;28;20028;-62
2022/05/04 14:05:43;;;;;;;8.27;2.90;;;;;;;;;;5041188;28;20044;-62
2022/05/04 14:08:09;;;;;;;2.92;2.67;;;;;;;;;;5042772;28;20168;-62
2022/05/04 14:10:37;;;;;;;5.40;3.20;;;;;;;;;;5040239;28;20037;-62
2022/05/04 14:13:03;;;;;;;8.55;3.20;;;;;;;;;;5040166;28;20037;-62
2022/05/04 14:15:29;;;;;;;6.70;3.28;;;;;;;;;;5040535;28;20114;-62
2022/05/04 14:17:55;;;;;;;6.47;3.30;;;;;;;;;;5037409;28;20087;-61
2022/05/04 14:20:21;;;;;;;7.97;3.53;;;;;;;;;;5039572;28;20045;-61
2022/05/04 14:22:48;;;;;;;6.13;3.85;;;;;;;;;;5037409;28;20034;-62
2022/05/04 14:25:15;;;;;;;7.38;3.63;;;;;;;;;;5044289;28;20130;-62
2022/05/04 14:27:41;;;;;;;6.68;3.63;;;;;;;;;;5040781;28;20045;-62
2022/05/04 14:30:08;;;;;;;8.68;3.55;;;;;;;;;;5037341;28;20033;-62
2022/05/04 14:32:34;;;;;;;8.00;3.92;;;;;;;;;;5036251;28;20056;-62
2022/05/04 14:35:01;;;;;;;6.20;3.53;;;;;;;;;;5040150;28;20122;-62
2022/05/04 14:37:27;;;;;;;11.75;3.80;;;;;;;;;;5040234;28;20053;-63
2022/05/04 14:39:53;;;;;;;8.88;4.10;;;;;;;;;;5045303;28;20106;-63
2022/05/04 14:42:19;;;;;;;9.30;3.40;;;;;;;;;;5036781;28;20022;-62
2022/05/04 14:44:45;;;;;;;7.22;3.63;;;;;;;;;;5034077;28;20053;-62
2022/05/04 14:47:11;;;;;;;7.13;3.90;;;;;;;;;;5042319;28;20029;-61
2022/05/04 14:49:37;;;;;;;12.80;4.90;;;;;;;;;;5048158;28;20162;-62
2022/05/04 14:52:03;;;;;;;5.38;3.65;;;;;;;;;;5041200;28;20806;-62
2022/05/04 14:54:29;;;;;;;6.38;3.30;;;;;;;;;;5044786;28;20122;-62
2022/05/04 14:56:55;;;;;;;6.60;3.83;;;;;;;;;;5041190;28;20465;-62
2022/05/04 14:59:20;;;;;;;7.78;4.00;;;;;;;;;;5037870;28;20051;-62
2022/05/04 15:01:46;;;;;;;6.25;3.60;;;;;;;;;;5040259;28;20048;-62
2022/05/04 15:06:57;;;;;;;9.60;3.58;;;;;;;;;;5047916;28;20478;-62
2022/05/04 15:09:23;;;;;;;3.97;2.95;;;;;;;;;;5038353;28;20036;-62
2022/05/04 15:11:49;;;;;;;6.80;3.20;;;;;;;;;;5043153;28;20032;-63
2022/05/04 15:14:15;;;;;;;5.55;2.92;;;;;;;;;;5040421;28;20029;-62
2022/05/04 15:16:41;;;;;;;12.27;3.47;;;;;;;;;;5036224;28;20032;-62
2022/05/04 15:19:07;;;;;;;5.03;3.50;;;;;;;;;;5038814;28;20497;-61
2022/05/04 15:21:33;;;;;;;5.88;3.60;;;;;;;;;;5037961;28;20033;-61
2022/05/04 15:23:59;;;;;;;8.90;3.58;;;;;;;;;;5035808;28;20029;-62
2022/05/04 15:26:25;;;;;;;6.53;3.80;;;;;;;;;;5034591;28;20025;-62
2022/05/04 15:28:51;;;;;;;9.10;3.85;;;;;;;;;;5040374;28;20065;-62
2022/05/04 15:31:17;;;;;;;6.53;3.85;;;;;;;;;;5033809;28;20033;-62
2022/05/04 15:33:43;;;;;;;9.68;3.63;;;;;;;;;;5038481;28;20037;-60